Time;durP1;ratioP1;P1;durP2;ratioP2;P2;SDS_P1;SDS_P2;PMS_P1;PMS_P2;Temp;Humidity;BMP_temperature;BMP_pressure;BME280_temperature;BME280_humidity;BME280_pressure;Samples;Min_cycle;Max_cycle;Signal;HPM_P1;HPM_P2
2019/10/21 00:00:58;;;;;;;4.4;2.4;;;;;;;18.31;49.64258;94733.95;;;;
2019/10/21 00:02:14;;;;;;;4.4;2.4;;;;;;;18.31;49.64258;94733.95;;;;
2019/10/21 00:03:15;;;;;;;4.4;2.4;;;;;;;18.31;49.64258;94733.95;;;;
2019/10/21 00:04:16;;;;;;;4.4;2.4;;;;;;;18.31;49.64258;94733.95;;;;
2019/10/21 00:05:17;;;;;;;4.4;2.4;;;;;;;18.31;49.64258;94733.95;;;;
2019/10/21 00:06:18;;;;;;;4.4;2.4;;;;;;;18.31;49.64258;94733.95;;;;
2019/10/21 00:07:20;;;;;;;4.4;2.4;;;;;;;18.31;49.64258;94733.95;;;;
2019/10/21 00:08:21;;;;;;;4.4;2.4;;;;;;;18.31;49.64258;94733.95;;;;
2019/10/21 00:09:22;;;;;;;4.4;2.4;;;;;;;18.31;49.64258;94733.95;;;;
2019/10/21 00:10:24;;;;;;;3.5;2.4;;;;;;;18.14;50.19238;94726.83;;;;
2019/10/21 00:11:25;;;;;;;3.5;2.4;;;;;;;18.14;50.19238;94726.83;;;;
2019/10/21 00:12:26;;;;;;;3.5;2.4;;;;;;;18.14;50.19238;94726.83;;;;
2019/10/21 00:13:27;;;;;;;3.5;2.4;;;;;;;18.14;50.19238;94726.83;;;;
2019/10/21 00:14:28;;;;;;;3.5;2.4;;;;;;;18.14;50.19238;94726.83;;;;
2019/10/21 00:15:29;;;;;;;3.5;2.4;;;;;;;18.14;50.19238;94726.83;;;;
2019/10/21 00:16:36;;;;;;;3.5;2.4;;;;;;;18.14;50.19238;94726.83;;;;
2019/10/21 00:17:37;;;;;;;3.5;2.4;;;;;;;18.14;50.19238;94726.83;;;;
2019/10/21 00:18:38;;;;;;;3.5;2.4;;;;;;;18.14;50.19238;94726.83;;;;
2019/10/21 00:19:39;;;;;;;3.5;2.4;;;;;;;18.14;50.19238;94726.83;;;;
2019/10/21 00:20:40;;;;;;;4.1;2.35;;;;;;;17.96;50.46973;94725.73;;;;
2019/10/21 00:21:41;;;;;;;4.1;2.35;;;;;;;17.96;50.46973;94725.73;;;;
2019/10/21 00:22:43;;;;;;;4.1;2.35;;;;;;;17.96;50.46973;94725.73;;;;
2019/10/21 00:23:44;;;;;;;4.1;2.4;;;;;;;17.98;51.12793;94715.45;;;;
2019/10/21 00:24:45;;;;;;;4.1;2.4;;;;;;;17.98;51.12793;94715.45;;;;
2019/10/21 00:25:46;;;;;;;4.1;2.4;;;;;;;17.98;51.12793;94715.45;;;;
2019/10/21 00:26:47;;;;;;;4.1;2.4;;;;;;;17.98;51.12793;94715.45;;;;
2019/10/21 00:27:48;;;;;;;4.1;2.4;;;;;;;17.98;51.12793;94715.45;;;;
2019/10/21 00:28:50;;;;;;;4.1;2.4;;;;;;;17.98;51.12793;94715.45;;;;
2019/10/21 00:29:51;;;;;;;4.1;2.4;;;;;;;17.98;51.12793;94715.45;;;;
2019/10/21 00:30:52;;;;;;;4.1;2.4;;;;;;;17.98;51.12793;94715.45;;;;
2019/10/21 00:31:53;;;;;;;4.1;2.4;;;;;;;17.98;51.12793;94715.45;;;;
2019/10/21 00:32:54;;;;;;;4.1;2.4;;;;;;;17.98;51.12793;94715.45;;;;
2019/10/21 00:33:55;;;;;;;2.9;2.2;;;;;;;17.86;51.12598;94727.22;;;;
2019/10/21 00:34:56;;;;;;;2.9;2.2;;;;;;;17.86;51.12598;94727.22;;;;
2019/10/21 00:35:58;;;;;;;2.9;2.2;;;;;;;17.86;51.12598;94727.22;;;;
2019/10/21 00:36:59;;;;;;;2.9;2.2;;;;;;;17.86;51.12598;94727.22;;;;
2019/10/21 00:38:00;;;;;;;2.9;2.2;;;;;;;17.86;51.12598;94727.22;;;;
2019/10/21 00:39:01;;;;;;;2.9;2.2;;;;;;;17.86;51.12598;94727.22;;;;
2019/10/21 00:40:04;;;;;;;2.9;2.2;;;;;;;17.86;51.12598;94727.22;;;;
2019/10/21 00:41:07;;;;;;;2.9;2.2;;;;;;;17.86;51.12598;94727.22;;;;
2019/10/21 00:42:09;;;;;;;2.9;2.2;;;;;;;17.86;51.12598;94727.22;;;;
2019/10/21 00:43:10;;;;;;;2.9;2.2;;;;;;;17.86;51.12598;94727.22;;;;
2019/10/21 00:44:11;;;;;;;2.9;2.2;;;;;;;17.86;51.12598;94727.22;;;;
2019/10/21 00:45:12;;;;;;;5.15;2.4;;;;;;;17.8;51.25098;94726.64;;;;
2019/10/21 00:46:15;;;;;;;5.15;2.4;;;;;;;17.8;51.25098;94726.64;;;;
2019/10/21 00:47:17;;;;;;;5.15;2.4;;;;;;;17.8;51.25098;94726.64;;;;
2019/10/21 00:48:18;;;;;;;5.15;2.4;;;;;;;17.8;51.25098;94726.64;;;;
2019/10/21 00:49:19;;;;;;;5.15;2.4;;;;;;;17.8;51.25098;94726.64;;;;
2019/10/21 00:50:20;;;;;;;5.15;2.4;;;;;;;17.8;51.25098;94726.64;;;;
2019/10/21 00:51:22;;;;;;;5.15;2.4;;;;;;;17.8;51.25098;94726.64;;;;
2019/10/21 00:52:23;;;;;;;5.15;2.4;;;;;;;17.8;51.25098;94726.64;;;;
2019/10/21 00:53:24;;;;;;;5.15;2.4;;;;;;;17.8;51.25098;94726.64;;;;
2019/10/21 00:54:25;;;;;;;5.15;2.4;;;;;;;17.8;51.25098;94726.64;;;;
2019/10/21 00:55:26;;;;;;;3.8;2.35;;;;;;;17.7;51.45801;94725.42;;;;
2019/10/21 00:56:27;;;;;;;3.8;2.35;;;;;;;17.7;51.45801;94725.42;;;;
2019/10/21 00:57:28;;;;;;;3.8;2.35;;;;;;;17.7;51.45801;94725.42;;;;
2019/10/21 00:58:30;;;;;;;3.8;2.35;;;;;;;17.7;51.45801;94725.42;;;;
2019/10/21 00:59:31;;;;;;;3.8;2.35;;;;;;;17.7;51.45801;94725.42;;;;
2019/10/21 01:00:32;;;;;;;3.8;2.35;;;;;;;17.7;51.45801;94725.42;;;;
2019/10/21 01:02:07;;;;;;;3.8;2.35;;;;;;;17.7;51.45801;94725.42;;;;
2019/10/21 01:03:09;;;;;;;3.8;2.35;;;;;;;17.7;51.45801;94725.42;;;;
2019/10/21 01:04:11;;;;;;;3.8;2.35;;;;;;;17.7;51.45801;94725.42;;;;
2019/10/21 01:05:12;;;;;;;3.8;2.35;;;;;;;17.7;51.45801;94725.42;;;;
2019/10/21 01:06:13;;;;;;;3.95;2.4;;;;;;;17.71;51.56836;94718.43;;;;
2019/10/21 01:07:15;;;;;;;3.95;2.4;;;;;;;17.71;51.56836;94718.43;;;;
2019/10/21 01:08:16;;;;;;;3.95;2.4;;;;;;;17.71;51.56836;94718.43;;;;
2019/10/21 01:09:18;;;;;;;3.95;2.4;;;;;;;17.71;51.56836;94718.43;;;;
2019/10/21 01:10:19;;;;;;;3.95;2.4;;;;;;;17.71;51.56836;94718.43;;;;
2019/10/21 01:11:21;;;;;;;3.95;2.4;;;;;;;17.71;51.56836;94718.43;;;;
2019/10/21 01:12:22;;;;;;;3.95;2.4;;;;;;;17.71;51.56836;94718.43;;;;
2019/10/21 01:13:23;;;;;;;3.95;2.4;;;;;;;17.71;51.56836;94718.43;;;;
2019/10/21 01:14:25;;;;;;;3.95;2.4;;;;;;;17.71;51.56836;94718.43;;;;
2019/10/21 01:15:26;;;;;;;3.95;2.4;;;;;;;17.71;51.56836;94718.43;;;;
2019/10/21 01:16:28;;;;;;;3;2.1;;;;;;;17.68;51.55469;94727.06;;;;
2019/10/21 01:17:30;;;;;;;3;2.1;;;;;;;17.68;51.55469;94727.06;;;;
2019/10/21 01:18:31;;;;;;;3;2.1;;;;;;;17.68;51.55469;94727.06;;;;
2019/10/21 01:19:32;;;;;;;3;2.1;;;;;;;17.68;51.55469;94727.06;;;;
2019/10/21 01:20:33;;;;;;;3;2.1;;;;;;;17.68;51.55469;94727.06;;;;
2019/10/21 01:21:35;;;;;;;3;2.1;;;;;;;17.68;51.55469;94727.06;;;;
2019/10/21 01:22:36;;;;;;;3;2.1;;;;;;;17.68;51.55469;94727.06;;;;
2019/10/21 01:23:37;;;;;;;3;2.1;;;;;;;17.68;51.55469;94727.06;;;;
2019/10/21 01:24:38;;;;;;;3;2.1;;;;;;;17.68;51.55469;94727.06;;;;
2019/10/21 01:25:40;;;;;;;3;2.1;;;;;;;17.68;51.55469;94727.06;;;;
2019/10/21 01:26:41;;;;;;;2.95;1.9;;;;;;;17.8;51.51367;94730.74;;;;
2019/10/21 01:27:42;;;;;;;2.95;1.9;;;;;;;17.8;51.51367;94730.74;;;;
2019/10/21 01:28:43;;;;;;;2.95;1.9;;;;;;;17.8;51.51367;94730.74;;;;
2019/10/21 01:29:45;;;;;;;2.95;1.9;;;;;;;17.8;51.51367;94730.74;;;;
2019/10/21 01:30:46;;;;;;;2.95;1.9;;;;;;;17.8;51.51367;94730.74;;;;
2019/10/21 01:31:47;;;;;;;2.95;1.9;;;;;;;17.8;51.51367;94730.74;;;;
2019/10/21 01:32:48;;;;;;;2.95;1.9;;;;;;;17.8;51.51367;94730.74;;;;
2019/10/21 01:33:50;;;;;;;2.95;1.9;;;;;;;17.8;51.51367;94730.74;;;;
2019/10/21 01:34:51;;;;;;;2.95;1.9;;;;;;;17.8;51.51367;94730.74;;;;
2019/10/21 01:35:52;;;;;;;2.95;1.9;;;;;;;17.8;51.51367;94730.74;;;;
2019/10/21 01:36:54;;;;;;;2.95;1.9;;;;;;;17.8;51.51367;94730.74;;;;
2019/10/21 01:37:55;;;;;;;3.75;2.2;;;;;;;17.95;51.33301;94754.3;;;;
2019/10/21 01:38:56;;;;;;;3.75;2.2;;;;;;;17.95;51.33301;94754.3;;;;
2019/10/21 01:39:57;;;;;;;3.75;2.2;;;;;;;17.95;51.33301;94754.3;;;;
2019/10/21 01:40:59;;;;;;;3.75;2.2;;;;;;;17.95;51.33301;94754.3;;;;
2019/10/21 01:42:00;;;;;;;3.75;2.2;;;;;;;17.95;51.33301;94754.3;;;;
2019/10/21 01:43:01;;;;;;;3.75;2.2;;;;;;;17.95;51.33301;94754.3;;;;
2019/10/21 01:44:02;;;;;;;3.75;2.2;;;;;;;17.95;51.33301;94754.3;;;;
2019/10/21 01:45:04;;;;;;;3.75;2.2;;;;;;;17.95;51.33301;94754.3;;;;
2019/10/21 01:46:07;;;;;;;3.75;2.2;;;;;;;17.95;51.33301;94754.3;;;;
2019/10/21 01:47:08;;;;;;;3.75;2.2;;;;;;;17.95;51.33301;94754.3;;;;
2019/10/21 01:48:09;;;;;;;2.6;2;;;;;;;17.99;51.27246;94767.47;;;;
2019/10/21 01:49:10;;;;;;;2.6;2;;;;;;;17.99;51.27246;94767.47;;;;
2019/10/21 01:50:11;;;;;;;2.6;2;;;;;;;17.99;51.27246;94767.47;;;;
2019/10/21 01:51:13;;;;;;;2.6;2;;;;;;;17.99;51.27246;94767.47;;;;
2019/10/21 01:52:14;;;;;;;2.6;2;;;;;;;17.99;51.27246;94767.47;;;;
2019/10/21 01:53:15;;;;;;;2.6;2;;;;;;;17.99;51.27246;94767.47;;;;
2019/10/21 01:54:16;;;;;;;2.6;2;;;;;;;17.99;51.27246;94767.47;;;;
2019/10/21 01:55:17;;;;;;;2.6;2;;;;;;;17.99;51.27246;94767.47;;;;
2019/10/21 01:56:19;;;;;;;2.6;2;;;;;;;17.99;51.27246;94767.47;;;;
2019/10/21 01:57:20;;;;;;;2.6;2;;;;;;;17.99;51.27246;94767.47;;;;
2019/10/21 01:58:22;;;;;;;2.6;2;;;;;;;17.99;51.27246;94767.47;;;;
2019/10/21 01:59:23;;;;;;;4.65;1.95;;;;;;;17.91;51.30664;94773.74;;;;
2019/10/21 02:00:24;;;;;;;4.65;1.95;;;;;;;17.91;51.30664;94773.74;;;;
2019/10/21 02:01:25;;;;;;;4.65;1.95;;;;;;;17.91;51.30664;94773.74;;;;
2019/10/21 02:02:27;;;;;;;4.65;1.95;;;;;;;17.91;51.30664;94773.74;;;;
2019/10/21 02:03:28;;;;;;;4.65;1.95;;;;;;;17.91;51.30664;94773.74;;;;
2019/10/21 02:04:29;;;;;;;4.65;1.95;;;;;;;17.91;51.30664;94773.74;;;;
2019/10/21 02:05:30;;;;;;;4.65;1.95;;;;;;;17.91;51.30664;94773.74;;;;
2019/10/21 02:06:31;;;;;;;4.65;1.95;;;;;;;17.91;51.30664;94773.74;;;;
2019/10/21 02:07:33;;;;;;;4.65;1.95;;;;;;;17.91;51.30664;94773.74;;;;
2019/10/21 02:08:34;;;;;;;4.65;1.95;;;;;;;17.91;51.30664;94773.74;;;;
2019/10/21 02:09:35;;;;;;;2.7;2;;;;;;;17.91;51.41602;94773.74;;;;
2019/10/21 02:10:36;;;;;;;2.7;2;;;;;;;17.91;51.41602;94773.74;;;;
2019/10/21 02:11:37;;;;;;;2.7;2;;;;;;;17.91;51.41602;94773.74;;;;
2019/10/21 02:12:39;;;;;;;2.7;2;;;;;;;17.91;51.41602;94773.74;;;;
2019/10/21 02:13:40;;;;;;;2.7;2;;;;;;;17.91;51.41602;94773.74;;;;
2019/10/21 02:14:41;;;;;;;2.7;2;;;;;;;17.91;51.41602;94773.74;;;;
2019/10/21 02:15:42;;;;;;;2.7;2;;;;;;;17.91;51.41602;94773.74;;;;
2019/10/21 02:16:43;;;;;;;2.7;2;;;;;;;17.91;51.41602;94773.74;;;;
2019/10/21 02:17:44;;;;;;;2.7;2;;;;;;;17.91;51.41602;94773.74;;;;
2019/10/21 02:18:46;;;;;;;2.7;2;;;;;;;17.91;51.41602;94773.74;;;;
2019/10/21 02:19:47;;;;;;;2.9;1.8;;;;;;;17.82;51.45996;94777.28;;;;
2019/10/21 02:20:48;;;;;;;2.9;1.8;;;;;;;17.82;51.45996;94777.28;;;;
2019/10/21 02:21:49;;;;;;;2.9;1.8;;;;;;;17.82;51.45996;94777.28;;;;
2019/10/21 02:22:51;;;;;;;2.9;1.8;;;;;;;17.82;51.45996;94777.28;;;;
2019/10/21 02:23:52;;;;;;;2.9;1.8;;;;;;;17.82;51.45996;94777.28;;;;
2019/10/21 02:24:53;;;;;;;2.9;1.8;;;;;;;17.82;51.45996;94777.28;;;;
2019/10/21 02:25:54;;;;;;;2.9;1.8;;;;;;;17.82;51.45996;94777.28;;;;
2019/10/21 02:26:55;;;;;;;2.9;1.8;;;;;;;17.82;51.45996;94777.28;;;;
2019/10/21 02:27:57;;;;;;;2.9;1.8;;;;;;;17.82;51.45996;94777.28;;;;
2019/10/21 02:28:58;;;;;;;2.9;1.8;;;;;;;17.82;51.45996;94777.28;;;;
2019/10/21 02:29:59;;;;;;;2.9;1.8;;;;;;;17.82;51.45996;94777.28;;;;
2019/10/21 02:31:00;;;;;;;3;1.9;;;;;;;17.72;51.54785;94799.64;;;;
2019/10/21 02:32:01;;;;;;;3;1.9;;;;;;;17.72;51.54785;94799.64;;;;
2019/10/21 02:33:03;;;;;;;3;1.9;;;;;;;17.72;51.54785;94799.64;;;;
2019/10/21 02:34:04;;;;;;;3;1.9;;;;;;;17.72;51.54785;94799.64;;;;
2019/10/21 02:35:05;;;;;;;3;1.9;;;;;;;17.72;51.54785;94799.64;;;;
2019/10/21 02:36:07;;;;;;;3;1.9;;;;;;;17.72;51.54785;94799.64;;;;
2019/10/21 02:37:08;;;;;;;3;1.9;;;;;;;17.72;51.54785;94799.64;;;;
2019/10/21 02:38:09;;;;;;;3;1.9;;;;;;;17.72;51.54785;94799.64;;;;
2019/10/21 02:39:10;;;;;;;3;1.9;;;;;;;17.72;51.54785;94799.64;;;;
2019/10/21 02:40:11;;;;;;;3;1.9;;;;;;;17.72;51.54785;94799.64;;;;
2019/10/21 02:41:15;;;;;;;3.65;2;;;;;;;17.49;51.9043;94816.31;;;;
2019/10/21 02:42:16;;;;;;;3.65;2;;;;;;;17.49;51.9043;94816.31;;;;
2019/10/21 02:43:17;;;;;;;3.65;2;;;;;;;17.49;51.9043;94816.31;;;;
2019/10/21 02:44:18;;;;;;;3.65;2;;;;;;;17.49;51.9043;94816.31;;;;
2019/10/21 02:45:19;;;;;;;3.65;2;;;;;;;17.49;51.9043;94816.31;;;;
2019/10/21 02:46:21;;;;;;;3.65;2;;;;;;;17.49;51.9043;94816.31;;;;
2019/10/21 02:47:35;;;;;;;3.65;2;;;;;;;17.49;51.9043;94816.31;;;;
2019/10/21 02:48:41;;;;;;;3.65;2;;;;;;;17.49;51.9043;94816.31;;;;
2019/10/21 02:49:46;;;;;;;3.65;2;;;;;;;17.49;51.9043;94816.31;;;;
2019/10/21 02:50:53;;;;;;;3.65;2;;;;;;;17.49;51.9043;94816.31;;;;
2019/10/21 02:52:04;;;;;;;2.45;2;;;;;;;17.35;52.25977;94849.45;;;;
2019/10/21 02:53:07;;;;;;;2.45;2;;;;;;;17.35;52.25977;94849.45;;;;
2019/10/21 02:54:13;;;;;;;2.45;2;;;;;;;17.35;52.25977;94849.45;;;;
2019/10/21 02:55:26;;;;;;;2.45;2;;;;;;;17.35;52.25977;94849.45;;;;
2019/10/21 02:56:35;;;;;;;2.45;2;;;;;;;17.35;52.25977;94849.45;;;;
2019/10/21 02:57:56;;;;;;;2.45;2;;;;;;;17.35;52.25977;94849.45;;;;
2019/10/21 02:59:28;;;;;;;2.45;2;;;;;;;17.35;52.25977;94849.45;;;;
2019/10/21 03:00:37;;;;;;;2.45;2;;;;;;;17.35;52.25977;94849.45;;;;
2019/10/21 03:01:38;;;;;;;2.45;2;;;;;;;17.35;52.25977;94849.45;;;;
2019/10/21 03:02:39;;;;;;;4.65;2;;;;;;;16.93;52.86523;94857.48;;;;
2019/10/21 03:03:41;;;;;;;4.65;2;;;;;;;16.93;52.86523;94857.48;;;;
2019/10/21 03:04:42;;;;;;;4.65;2;;;;;;;16.93;52.86523;94857.48;;;;
2019/10/21 03:05:48;;;;;;;4.65;2;;;;;;;16.93;52.86523;94857.48;;;;
2019/10/21 03:06:56;;;;;;;4.65;2;;;;;;;16.93;52.86523;94857.48;;;;
2019/10/21 03:08:01;;;;;;;4.65;2;;;;;;;16.93;52.86523;94857.48;;;;
2019/10/21 03:09:03;;;;;;;4.65;2;;;;;;;16.93;52.86523;94857.48;;;;
2019/10/21 03:10:04;;;;;;;4.65;2;;;;;;;16.93;52.86523;94857.48;;;;
2019/10/21 03:11:06;;;;;;;4.65;2;;;;;;;16.93;52.86523;94857.48;;;;
2019/10/21 03:12:09;;;;;;;4.65;2;;;;;;;16.93;52.86523;94857.48;;;;
2019/10/21 03:13:10;;;;;;;3.55;2.2;;;;;;;16.43;53.97363;94868.72;;;;
2019/10/21 03:14:12;;;;;;;3.55;2.2;;;;;;;16.43;53.97363;94868.72;;;;
2019/10/21 03:15:13;;;;;;;3.55;2.2;;;;;;;16.43;53.97363;94868.72;;;;
2019/10/21 03:16:14;;;;;;;3.55;2.2;;;;;;;16.43;53.97363;94868.72;;;;
2019/10/21 03:17:15;;;;;;;3.55;2.2;;;;;;;16.43;53.97363;94868.72;;;;
2019/10/21 03:18:16;;;;;;;3.55;2.2;;;;;;;16.43;53.97363;94868.72;;;;
2019/10/21 03:19:18;;;;;;;3.55;2.2;;;;;;;16.43;53.97363;94868.72;;;;
2019/10/21 03:20:19;;;;;;;3.55;2.2;;;;;;;16.43;53.97363;94868.72;;;;
2019/10/21 03:21:20;;;;;;;3.55;2.2;;;;;;;16.43;53.97363;94868.72;;;;
2019/10/21 03:22:22;;;;;;;3.55;2.2;;;;;;;16.43;53.97363;94868.72;;;;
2019/10/21 03:23:39;;;;;;;4.1;2.25;;;;;;;15.9;54.7041;94875.83;;;;
2019/10/21 03:24:41;;;;;;;4.1;2.25;;;;;;;15.9;54.7041;94875.83;;;;
2019/10/21 03:25:42;;;;;;;4.1;2.25;;;;;;;15.9;54.7041;94875.83;;;;
2019/10/21 03:26:43;;;;;;;4.1;2.25;;;;;;;15.9;54.7041;94875.83;;;;
2019/10/21 03:27:44;;;;;;;4.1;2.25;;;;;;;15.9;54.7041;94875.83;;;;
2019/10/21 03:28:46;;;;;;;4.1;2.25;;;;;;;15.9;54.7041;94875.83;;;;
2019/10/21 03:29:47;;;;;;;4.1;2.25;;;;;;;15.9;54.7041;94875.83;;;;
2019/10/21 03:30:48;;;;;;;4.1;2.25;;;;;;;15.9;54.7041;94875.83;;;;
2019/10/21 03:31:49;;;;;;;4.1;2.25;;;;;;;15.9;54.7041;94875.83;;;;
2019/10/21 03:32:51;;;;;;;4.1;2.25;;;;;;;15.9;54.7041;94875.83;;;;
2019/10/21 03:33:52;;;;;;;4.1;2.25;;;;;;;15.9;54.7041;94875.83;;;;
2019/10/21 03:34:53;;;;;;;3.4;2.6;;;;;;;15.34;55.72266;94897.04;;;;
2019/10/21 03:35:54;;;;;;;3.4;2.6;;;;;;;15.34;55.72266;94897.04;;;;
2019/10/21 03:36:55;;;;;;;3.4;2.6;;;;;;;15.34;55.72266;94897.04;;;;
2019/10/21 03:37:56;;;;;;;3.4;2.6;;;;;;;15.34;55.72266;94897.04;;;;
2019/10/21 03:38:58;;;;;;;3.4;2.6;;;;;;;15.34;55.72266;94897.04;;;;
2019/10/21 03:39:59;;;;;;;3.4;2.6;;;;;;;15.34;55.72266;94897.04;;;;
2019/10/21 03:41:00;;;;;;;3.4;2.6;;;;;;;15.34;55.72266;94897.04;;;;
2019/10/21 03:42:02;;;;;;;3.4;2.6;;;;;;;15.34;55.72266;94897.04;;;;
2019/10/21 03:43:03;;;;;;;3.4;2.6;;;;;;;15.34;55.72266;94897.04;;;;
2019/10/21 03:44:05;;;;;;;3.4;2.6;;;;;;;15.34;55.72266;94897.04;;;;
2019/10/21 03:45:06;;;;;;;3.4;2.6;;;;;;;14.7;56.80469;94909.83;;;;
2019/10/21 03:46:07;;;;;;;3.4;2.6;;;;;;;14.7;56.80469;94909.83;;;;
2019/10/21 03:47:09;;;;;;;3.4;2.6;;;;;;;14.7;56.80469;94909.83;;;;
2019/10/21 03:48:11;;;;;;;3.4;2.6;;;;;;;14.7;56.80469;94909.83;;;;
2019/10/21 03:49:12;;;;;;;3.4;2.6;;;;;;;14.7;56.80469;94909.83;;;;
2019/10/21 03:50:13;;;;;;;3.4;2.6;;;;;;;14.7;56.80469;94909.83;;;;
2019/10/21 03:51:15;;;;;;;3.4;2.6;;;;;;;14.7;56.80469;94909.83;;;;
2019/10/21 03:52:17;;;;;;;3.4;2.6;;;;;;;14.7;56.80469;94909.83;;;;
2019/10/21 03:53:18;;;;;;;3.4;2.6;;;;;;;14.7;56.80469;94909.83;;;;
2019/10/21 03:54:19;;;;;;;3.4;2.6;;;;;;;14.7;56.80469;94909.83;;;;
2019/10/21 03:55:20;;;;;;;4.7;2.5;;;;;;;14.15;57.90527;94936.84;;;;
2019/10/21 03:56:22;;;;;;;4.7;2.5;;;;;;;14.15;57.90527;94936.84;;;;
2019/10/21 03:57:23;;;;;;;4.7;2.5;;;;;;;14.15;57.90527;94936.84;;;;
2019/10/21 03:58:24;;;;;;;4.7;2.5;;;;;;;14.15;57.90527;94936.84;;;;
2019/10/21 03:59:25;;;;;;;4.7;2.5;;;;;;;14.15;57.90527;94936.84;;;;
2019/10/21 04:00:26;;;;;;;4.7;2.5;;;;;;;14.15;57.90527;94936.84;;;;
2019/10/21 04:01:30;;;;;;;4.7;2.5;;;;;;;14.15;57.90527;94936.84;;;;
2019/10/21 04:02:31;;;;;;;4.7;2.5;;;;;;;14.15;57.90527;94936.84;;;;
2019/10/21 04:03:32;;;;;;;4.7;2.5;;;;;;;14.15;57.90527;94936.84;;;;
2019/10/21 04:04:33;;;;;;;4.7;2.5;;;;;;;14.15;57.90527;94936.84;;;;
2019/10/21 04:05:34;;;;;;;4.7;2.5;;;;;;;14.15;57.90527;94936.84;;;;
2019/10/21 04:06:36;;;;;;;4.050001;3;;;;;;;13.64;59.00781;94961.99;;;;
2019/10/21 04:07:37;;;;;;;4.050001;3;;;;;;;13.64;59.00781;94961.99;;;;
2019/10/21 04:08:38;;;;;;;4.050001;3;;;;;;;13.64;59.00781;94961.99;;;;
2019/10/21 04:09:39;;;;;;;4.050001;3;;;;;;;13.64;59.00781;94961.99;;;;
2019/10/21 04:10:41;;;;;;;4.050001;3;;;;;;;13.64;59.00781;94961.99;;;;
2019/10/21 04:11:42;;;;;;;4.050001;3;;;;;;;13.64;59.00781;94961.99;;;;
2019/10/21 04:12:43;;;;;;;4.050001;3;;;;;;;13.64;59.00781;94961.99;;;;
2019/10/21 04:13:44;;;;;;;4.050001;3;;;;;;;13.64;59.00781;94961.99;;;;
2019/10/21 04:14:45;;;;;;;4.050001;3;;;;;;;13.64;59.00781;94961.99;;;;
2019/10/21 04:15:46;;;;;;;4.050001;3;;;;;;;13.64;59.00781;94961.99;;;;
2019/10/21 04:16:48;;;;;;;5.55;3.4;;;;;;;13.24;60.13184;94997.89;;;;
2019/10/21 04:17:49;;;;;;;5.55;3.4;;;;;;;13.24;60.13184;94997.89;;;;
2019/10/21 04:18:50;;;;;;;5.55;3.4;;;;;;;13.24;60.13184;94997.89;;;;
2019/10/21 04:19:51;;;;;;;5.55;3.4;;;;;;;13.24;60.13184;94997.89;;;;
2019/10/21 04:20:52;;;;;;;5.55;3.4;;;;;;;13.24;60.13184;94997.89;;;;
2019/10/21 04:21:53;;;;;;;5.55;3.4;;;;;;;13.24;60.13184;94997.89;;;;
2019/10/21 04:22:55;;;;;;;5.55;3.4;;;;;;;13.24;60.13184;94997.89;;;;
2019/10/21 04:23:56;;;;;;;5.55;3.4;;;;;;;13.24;60.13184;94997.89;;;;
2019/10/21 04:24:57;;;;;;;5.55;3.4;;;;;;;13.24;60.13184;94997.89;;;;
2019/10/21 04:25:58;;;;;;;5.55;3.4;;;;;;;13.24;60.13184;94997.89;;;;
2019/10/21 04:27:01;;;;;;;6.349999;4.25;;;;;;;12.8;61.27051;95025.26;;;;
2019/10/21 04:28:02;;;;;;;6.349999;4.25;;;;;;;12.8;61.27051;95025.26;;;;
2019/10/21 04:29:05;;;;;;;6.349999;4.25;;;;;;;12.8;61.27051;95025.26;;;;
2019/10/21 04:30:06;;;;;;;6.349999;4.25;;;;;;;12.8;61.27051;95025.26;;;;
2019/10/21 04:31:08;;;;;;;6.349999;4.25;;;;;;;12.8;61.27051;95025.26;;;;
2019/10/21 04:32:09;;;;;;;6.349999;4.25;;;;;;;12.8;61.27051;95025.26;;;;
2019/10/21 04:33:10;;;;;;;6.349999;4.25;;;;;;;12.8;61.27051;95025.26;;;;
2019/10/21 04:34:12;;;;;;;6.349999;4.25;;;;;;;12.8;61.27051;95025.26;;;;
2019/10/21 04:35:13;;;;;;;6.349999;4.25;;;;;;;12.8;61.27051;95025.26;;;;
2019/10/21 04:36:14;;;;;;;6.349999;4.25;;;;;;;12.8;61.27051;95025.26;;;;
2019/10/21 04:37:15;;;;;;;6.349999;4.25;;;;;;;12.8;61.27051;95025.26;;;;
2019/10/21 04:38:16;;;;;;;6.25;4.450001;;;;;;;12.49;62.55273;95055.78;;;;
2019/10/21 04:39:18;;;;;;;6.25;4.450001;;;;;;;12.49;62.55273;95055.78;;;;
2019/10/21 04:40:19;;;;;;;6.25;4.450001;;;;;;;12.49;62.55273;95055.78;;;;
2019/10/21 04:41:20;;;;;;;6.25;4.450001;;;;;;;12.49;62.55273;95055.78;;;;
2019/10/21 04:42:22;;;;;;;6.25;4.450001;;;;;;;12.49;62.55273;95055.78;;;;
2019/10/21 04:43:23;;;;;;;6.25;4.450001;;;;;;;12.49;62.55273;95055.78;;;;
2019/10/21 04:44:25;;;;;;;6.25;4.450001;;;;;;;12.49;62.55273;95055.78;;;;
2019/10/21 04:45:26;;;;;;;6.25;4.450001;;;;;;;12.49;62.55273;95055.78;;;;
2019/10/21 04:46:27;;;;;;;6.25;4.450001;;;;;;;12.49;62.55273;95055.78;;;;
2019/10/21 04:47:28;;;;;;;6.25;4.450001;;;;;;;12.49;62.55273;95055.78;;;;
2019/10/21 04:48:30;;;;;;;5;4.149999;;;;;;;12.18;63.71582;95081.81;;;;
2019/10/21 04:49:31;;;;;;;5;4.149999;;;;;;;12.18;63.71582;95081.81;;;;
2019/10/21 04:50:32;;;;;;;5;4.149999;;;;;;;12.18;63.71582;95081.81;;;;
2019/10/21 04:51:33;;;;;;;5;4.149999;;;;;;;12.18;63.71582;95081.81;;;;
2019/10/21 04:52:34;;;;;;;5;4.149999;;;;;;;12.18;63.71582;95081.81;;;;
2019/10/21 04:53:35;;;;;;;5;4.149999;;;;;;;12.18;63.71582;95081.81;;;;
2019/10/21 04:54:36;;;;;;;5;4.149999;;;;;;;12.18;63.71582;95081.81;;;;
2019/10/21 04:55:37;;;;;;;5;4.149999;;;;;;;12.18;63.71582;95081.81;;;;
2019/10/21 04:56:39;;;;;;;5;4.149999;;;;;;;12.18;63.71582;95081.81;;;;
2019/10/21 04:57:40;;;;;;;5;4.149999;;;;;;;12.18;63.71582;95081.81;;;;
2019/10/21 04:58:41;;;;;;;5;4.149999;;;;;;;12.18;63.71582;95081.81;;;;
2019/10/21 04:59:42;;;;;;;6.6;5.050001;;;;;;;11.97;64.8584;95100.57;;;;
2019/10/21 05:00:43;;;;;;;6.6;5.050001;;;;;;;11.97;64.8584;95100.57;;;;
2019/10/21 05:01:44;;;;;;;6.6;5.050001;;;;;;;11.97;64.8584;95100.57;;;;
2019/10/21 05:02:45;;;;;;;6.6;5.050001;;;;;;;11.97;64.8584;95100.57;;;;
2019/10/21 05:03:46;;;;;;;6.6;5.050001;;;;;;;11.97;64.8584;95100.57;;;;
2019/10/21 05:04:48;;;;;;;6.6;5.050001;;;;;;;11.97;64.8584;95100.57;;;;
2019/10/21 05:05:49;;;;;;;6.6;5.050001;;;;;;;11.97;64.8584;95100.57;;;;
2019/10/21 05:06:51;;;;;;;6.6;5.050001;;;;;;;11.97;64.8584;95100.57;;;;
2019/10/21 05:07:52;;;;;;;6.6;5.050001;;;;;;;11.97;64.8584;95100.57;;;;
2019/10/21 05:08:53;;;;;;;6.6;5.050001;;;;;;;11.97;64.8584;95100.57;;;;
2019/10/21 05:09:54;;;;;;;7.349999;5.45;;;;;;;11.76;65.94727;95135.05;;;;
2019/10/21 05:10:56;;;;;;;7.349999;5.45;;;;;;;11.76;65.94727;95135.05;;;;
2019/10/21 05:11:57;;;;;;;7.349999;5.45;;;;;;;11.76;65.94727;95135.05;;;;
2019/10/21 05:12:58;;;;;;;7.349999;5.45;;;;;;;11.76;65.94727;95135.05;;;;
2019/10/21 05:13:59;;;;;;;7.349999;5.45;;;;;;;11.76;65.94727;95135.05;;;;
2019/10/21 05:15:00;;;;;;;7.349999;5.45;;;;;;;11.76;65.94727;95135.05;;;;
2019/10/21 05:16:01;;;;;;;7.349999;5.45;;;;;;;11.76;65.94727;95135.05;;;;
2019/10/21 05:17:03;;;;;;;7.349999;5.45;;;;;;;11.76;65.94727;95135.05;;;;
2019/10/21 05:18:04;;;;;;;7.349999;5.45;;;;;;;11.76;65.94727;95135.05;;;;
2019/10/21 05:19:05;;;;;;;7.349999;5.45;;;;;;;11.76;65.94727;95135.05;;;;
2019/10/21 05:20:06;;;;;;;11.15;5.1;;;;;;;11.7;66.95996;95115.73;;;;
2019/10/21 05:21:08;;;;;;;11.15;5.1;;;;;;;11.7;66.95996;95115.73;;;;
2019/10/21 05:22:09;;;;;;;11.15;5.1;;;;;;;11.7;66.95996;95115.73;;;;
2019/10/21 05:23:10;;;;;;;11.15;5.1;;;;;;;11.7;66.95996;95115.73;;;;
2019/10/21 05:24:12;;;;;;;11.15;5.1;;;;;;;11.7;66.95996;95115.73;;;;
2019/10/21 05:25:13;;;;;;;11.15;5.1;;;;;;;11.7;66.95996;95115.73;;;;
2019/10/21 05:26:14;;;;;;;11.15;5.1;;;;;;;11.7;66.95996;95115.73;;;;
2019/10/21 05:27:15;;;;;;;11.15;5.1;;;;;;;11.7;66.95996;95115.73;;;;
2019/10/21 05:28:16;;;;;;;11.15;5.1;;;;;;;11.7;66.95996;95115.73;;;;
2019/10/21 05:29:17;;;;;;;11.15;5.1;;;;;;;11.7;66.95996;95115.73;;;;
2019/10/21 05:30:18;;;;;;;11.15;5.1;;;;;;;11.7;66.95996;95115.73;;;;
2019/10/21 05:31:19;;;;;;;8.400001;5.799999;;;;;;;11.65;68.06934;95117.02;;;;
2019/10/21 05:32:21;;;;;;;8.400001;5.799999;;;;;;;11.65;68.06934;95117.02;;;;
2019/10/21 05:33:22;;;;;;;8.400001;5.799999;;;;;;;11.65;68.06934;95117.02;;;;
2019/10/21 05:34:23;;;;;;;8.400001;5.799999;;;;;;;11.65;68.06934;95117.02;;;;
2019/10/21 05:35:24;;;;;;;8.400001;5.799999;;;;;;;11.65;68.06934;95117.02;;;;
2019/10/21 05:36:25;;;;;;;8.400001;5.799999;;;;;;;11.65;68.06934;95117.02;;;;
2019/10/21 05:37:26;;;;;;;8.400001;5.799999;;;;;;;11.65;68.06934;95117.02;;;;
2019/10/21 05:38:27;;;;;;;8.400001;5.799999;;;;;;;11.65;68.06934;95117.02;;;;
2019/10/21 05:39:28;;;;;;;8.400001;5.799999;;;;;;;11.65;68.06934;95117.02;;;;
2019/10/21 05:40:30;;;;;;;8.400001;5.799999;;;;;;;11.65;68.06934;95117.02;;;;
2019/10/21 05:41:31;;;;;;;11.35;6.3;;;;;;;11.77;69.11914;95138.14;;;;
2019/10/21 05:42:32;;;;;;;11.35;6.3;;;;;;;11.77;69.11914;95138.14;;;;
2019/10/21 05:43:33;;;;;;;11.35;6.3;;;;;;;11.77;69.11914;95138.14;;;;
2019/10/21 05:44:34;;;;;;;11.35;6.3;;;;;;;11.77;69.11914;95138.14;;;;
2019/10/21 05:45:35;;;;;;;11.35;6.3;;;;;;;11.77;69.11914;95138.14;;;;
2019/10/21 05:46:36;;;;;;;11.35;6.3;;;;;;;11.77;69.11914;95138.14;;;;
2019/10/21 05:47:38;;;;;;;11.35;6.3;;;;;;;11.77;69.11914;95138.14;;;;
2019/10/21 05:48:39;;;;;;;11.35;6.3;;;;;;;11.77;69.11914;95138.14;;;;
2019/10/21 05:49:40;;;;;;;11.35;6.3;;;;;;;11.77;69.11914;95138.14;;;;
2019/10/21 05:50:41;;;;;;;11.35;6.3;;;;;;;11.77;69.11914;95138.14;;;;
2019/10/21 05:51:42;;;;;;;11.35;6.3;;;;;;;11.77;69.11914;95138.14;;;;
2019/10/21 05:52:43;;;;;;;9.499999;6.600001;;;;;;;11.89;70.04395;95140.09;;;;
2019/10/21 05:53:44;;;;;;;9.499999;6.600001;;;;;;;11.89;70.04395;95140.09;;;;
2019/10/21 05:54:45;;;;;;;9.499999;6.600001;;;;;;;11.89;70.04395;95140.09;;;;